createdAt,value
2023-03-21T00:00:38.919Z,59.91
2023-03-21T00:03:46.876Z,59.08
2023-03-21T00:06:51.052Z,59.81
2023-03-21T00:09:59.065Z,59.86
2023-03-21T00:13:08.406Z,60.82
2023-03-21T00:16:23.930Z,59.84
2023-03-21T00:19:38.970Z,60.35
2023-03-21T00:22:43.208Z,59.96
2023-03-21T00:25:46.895Z,60.40
2023-03-21T00:28:50.959Z,59.68
2023-03-21T00:31:57.370Z,60.45
2023-03-21T00:35:21.551Z,60.35
2023-03-21T00:38:24.625Z,60.45
2023-03-21T00:41:41.362Z,60.74
2023-03-21T00:44:45.900Z,60.21
2023-03-21T00:47:49.466Z,60.63
2023-03-21T00:50:54.657Z,60.87
2023-03-21T00:53:58.953Z,61.61
2023-03-21T00:57:05.552Z,60.43
2023-03-21T01:00:12.048Z,61.76
2023-03-21T01:03:24.260Z,62.29
2023-03-21T01:06:28.933Z,60.98
2023-03-21T01:09:33.120Z,61.50
2023-03-21T01:12:36.246Z,62.39
2023-03-21T01:15:48.325Z,62.48
2023-03-21T01:18:51.130Z,61.66
2023-03-21T01:22:00.130Z,62.52
2023-03-21T01:25:19.577Z,62.76
2023-03-21T01:28:29.440Z,62.53
2023-03-21T01:31:32.430Z,62.26
2023-03-21T01:34:36.344Z,62.72
2023-03-21T01:37:39.148Z,61.87
2023-03-21T01:40:45.197Z,62.82
2023-03-21T01:43:57.205Z,62.82
2023-03-21T01:47:11.479Z,63.00
2023-03-21T01:50:40.788Z,63.54
2023-03-21T01:54:17.171Z,63.50
2023-03-21T01:57:41.057Z,63.55
2023-03-21T02:00:50.493Z,63.24
2023-03-21T02:04:09.300Z,63.37
2023-03-21T02:07:19.326Z,63.37
2023-03-21T02:10:31.506Z,63.03
2023-03-21T02:13:36.439Z,62.76
2023-03-21T02:17:05.419Z,62.87
2023-03-21T02:20:45.797Z,61.95
2023-03-21T02:24:20.681Z,62.81
2023-03-21T02:27:25.124Z,63.66
2023-03-21T02:30:45.495Z,62.64
2023-03-21T02:34:06.593Z,63.65
2023-03-21T02:37:36.690Z,62.73
2023-03-21T02:41:10.150Z,63.12
2023-03-21T02:44:24.224Z,63.16
2023-03-21T02:47:34.787Z,62.96
2023-03-21T02:50:46.785Z,62.66
2023-03-21T02:54:23.680Z,62.34
2023-03-21T02:57:25.353Z,62.56
2023-03-21T03:00:34.328Z,62.32
2023-03-21T03:03:40.071Z,62.55
2023-03-21T03:07:25.458Z,63.99
2023-03-21T03:10:51.728Z,63.73
2023-03-21T03:14:25.395Z,62.99
2023-03-21T03:18:12.752Z,63.82
2023-03-21T03:21:18.386Z,63.94
2023-03-21T03:24:24.449Z,63.48
2023-03-21T03:27:38.168Z,63.58
2023-03-21T03:30:53.956Z,63.77
2023-03-21T03:34:13.182Z,63.12
2023-03-21T03:37:26.353Z,63.30
2023-03-21T03:40:35.925Z,63.11
2023-03-21T03:43:54.004Z,63.36
2023-03-21T03:47:00.654Z,63.49
2023-03-21T03:50:17.082Z,63.48
2023-03-21T03:53:25.451Z,63.17
2023-03-21T03:56:31.163Z,62.89
2023-03-21T03:59:36.787Z,63.80
2023-03-21T04:03:01.289Z,64.03
2023-03-21T04:06:04.370Z,63.77
2023-03-21T04:09:19.216Z,63.66
2023-03-21T04:12:23.387Z,63.38
2023-03-21T04:15:46.181Z,62.92
2023-03-21T04:18:52.538Z,63.05
2023-03-21T04:21:55.668Z,63.40
2023-03-21T04:25:01.502Z,63.25
2023-03-21T04:28:07.644Z,63.45
2023-03-21T04:31:25.068Z,63.78
2023-03-21T04:34:40.409Z,63.37
2023-03-21T04:37:45.195Z,63.61
2023-03-21T04:40:51.145Z,63.19
2023-03-21T04:43:55.121Z,62.97
2023-03-21T04:46:57.776Z,63.04
2023-03-21T04:50:01.063Z,62.91
2023-03-21T04:53:04.884Z,62.80
2023-03-21T04:56:07.931Z,63.67
2023-03-21T04:59:14.282Z,63.86
2023-03-21T05:02:17.003Z,63.80
2023-03-21T05:05:20.350Z,63.84
2023-03-21T05:08:24.803Z,63.75
2023-03-21T05:11:31.095Z,63.26
2023-03-21T05:14:35.156Z,63.09
2023-03-21T05:17:37.898Z,62.99
2023-03-21T05:20:44.897Z,62.89
2023-03-21T05:23:54.832Z,62.17
2023-03-21T05:27:03.096Z,62.91
2023-03-21T05:30:16.579Z,62.82
2023-03-21T05:33:20.736Z,62.58
2023-03-21T05:36:24.702Z,63.45
2023-03-21T05:39:27.686Z,62.62
2023-03-21T05:42:38.864Z,62.25
2023-03-21T05:45:50.729Z,62.43
2023-03-21T05:48:58.289Z,62.85
2023-03-21T05:52:01.435Z,62.71
2023-03-21T05:55:06.305Z,62.05
2023-03-21T05:58:10.714Z,61.82
2023-03-21T06:01:14.963Z,61.86
2023-03-21T06:04:24.085Z,61.66
2023-03-21T06:07:26.766Z,61.52
2023-03-21T06:10:30.428Z,61.34
2023-03-21T06:13:34.293Z,60.86
2023-03-21T06:16:37.059Z,60.94
2023-03-21T06:19:40.350Z,61.52
2023-03-21T06:22:47.770Z,60.94
2023-03-21T06:25:51.299Z,60.98
2023-03-21T06:28:55.092Z,60.62
2023-03-21T06:31:58.670Z,60.57
2023-03-21T06:35:01.593Z,61.37
2023-03-21T06:38:14.266Z,61.41
2023-03-21T06:41:21.618Z,61.39
2023-03-21T06:44:49.317Z,61.20
2023-03-21T06:48:09.460Z,60.59
2023-03-21T06:51:41.041Z,61.25
2023-03-21T06:54:58.775Z,61.31
2023-03-21T06:58:14.362Z,61.53
2023-03-21T07:01:38.384Z,61.78
2023-03-21T07:04:51.296Z,60.94
2023-03-21T07:07:58.943Z,60.71
2023-03-21T07:11:03.542Z,60.56
2023-03-21T07:14:06.896Z,59.70
2023-03-21T07:17:09.894Z,60.64
2023-03-21T07:20:12.907Z,60.95
2023-03-21T07:23:16.009Z,59.80
2023-03-21T07:26:19.475Z,59.67
2023-03-21T07:29:23.722Z,58.27
2023-03-21T07:32:30.005Z,58.13
2023-03-21T07:35:33.687Z,56.88
2023-03-21T07:38:38.246Z,56.62
2023-03-21T07:41:42.965Z,56.58
2023-03-21T07:44:59.000Z,55.49
2023-03-21T07:48:03.197Z,54.63
2023-03-21T07:51:10.678Z,54.25
2023-03-21T07:54:19.600Z,53.86
2023-03-21T07:57:23.645Z,53.53
2023-03-21T08:00:27.092Z,53.15
2023-03-21T08:03:36.577Z,52.49
2023-03-21T08:06:51.982Z,52.52
2023-03-21T08:10:02.869Z,53.13
2023-03-21T08:13:06.299Z,51.82
2023-03-21T08:16:18.932Z,51.25
2023-03-21T08:19:37.628Z,51.27
2023-03-21T08:22:51.684Z,50.92
2023-03-21T08:25:56.796Z,49.77
2023-03-21T08:29:00.029Z,49.73
2023-03-21T08:32:10.116Z,49.66
2023-03-21T08:35:20.597Z,49.22
2023-03-21T08:38:24.723Z,49.01
2023-03-21T08:41:27.666Z,48.77
2023-03-21T08:44:32.656Z,48.16
2023-03-21T08:47:40.922Z,48.74
2023-03-21T08:50:55.165Z,48.12
2023-03-21T08:54:14.383Z,47.68
2023-03-21T08:57:24.720Z,46.72
2023-03-21T09:00:28.524Z,46.50
2023-03-21T09:03:31.208Z,46.69
2023-03-21T09:06:41.194Z,45.60
2023-03-21T09:09:58.123Z,45.28
2023-03-21T09:13:06.049Z,45.65
2023-03-21T09:16:09.703Z,44.97
2023-03-21T09:19:14.649Z,44.64
2023-03-21T09:22:18.137Z,44.63
2023-03-21T09:25:21.685Z,44.13
2023-03-21T09:28:25.455Z,43.30
2023-03-21T09:31:28.742Z,44.29
2023-03-21T09:34:33.434Z,44.93
2023-03-21T09:37:38.439Z,45.39
2023-03-21T09:41:01.899Z,45.12
2023-03-21T09:44:29.652Z,44.88
2023-03-21T09:47:59.346Z,43.96
2023-03-21T09:51:18.303Z,45.10
2023-03-21T09:54:25.130Z,45.66
2023-03-21T09:57:43.873Z,44.74
2023-03-21T10:00:53.677Z,45.00
2023-03-21T10:03:57.762Z,45.54
2023-03-21T10:07:02.808Z,44.70
2023-03-21T10:10:07.646Z,45.13
2023-03-21T10:13:22.961Z,43.88
2023-03-21T10:16:33.428Z,43.16
2023-03-21T10:19:37.494Z,42.41
2023-03-21T10:22:43.407Z,42.28
2023-03-21T10:26:16.975Z,41.91
2023-03-21T10:29:57.587Z,41.51
2023-03-21T10:33:20.121Z,41.61
2023-03-21T10:36:33.466Z,41.26
2023-03-21T10:40:03.462Z,40.57
2023-03-21T10:43:32.900Z,40.47
2023-03-21T10:46:58.604Z,40.85
2023-03-21T10:50:13.167Z,41.15
2023-03-21T10:53:22.816Z,41.70
2023-03-21T10:56:29.184Z,41.00
2023-03-21T10:59:45.866Z,40.87
2023-03-21T11:02:51.846Z,40.29
2023-03-21T11:06:00.294Z,39.02
2023-03-21T11:09:25.278Z,39.22
2023-03-21T11:12:40.890Z,39.41
2023-03-21T11:15:58.255Z,39.29
2023-03-21T11:19:18.685Z,39.27
2023-03-21T11:22:39.598Z,39.37
2023-03-21T11:25:44.928Z,38.78
2023-03-21T11:28:48.015Z,38.36
2023-03-21T11:31:52.181Z,38.76
2023-03-21T11:35:01.443Z,38.12
2023-03-21T11:38:06.469Z,37.66
2023-03-21T11:41:22.053Z,38.43
2023-03-21T11:44:35.999Z,38.13
2023-03-21T11:47:39.674Z,37.72
2023-03-21T11:50:49.797Z,39.25
2023-03-21T11:54:28.480Z,38.07
2023-03-21T11:57:47.554Z,39.12
2023-03-21T12:01:14.482Z,36.83
2023-03-21T12:05:03.137Z,38.66
2023-03-21T12:08:28.028Z,39.18
2023-03-21T12:12:36.521Z,39.13
2023-03-21T12:16:49.925Z,37.69
2023-03-21T12:20:22.755Z,37.07
2023-03-21T12:23:51.661Z,36.41
2023-03-21T12:27:00.258Z,36.70
2023-03-21T12:31:02.058Z,36.20
2023-03-21T12:34:35.917Z,34.89
2023-03-21T12:37:58.687Z,34.13
2023-03-21T12:41:27.527Z,31.10
2023-03-21T12:44:48.353Z,29.10
2023-03-21T12:48:24.114Z,31.52
2023-03-21T12:51:40.334Z,32.55
2023-03-21T12:55:04.830Z,34.77
2023-03-21T12:58:32.242Z,36.12
2023-03-21T13:01:55.549Z,36.64
2023-03-21T13:09:23.422Z,36.90
2023-03-21T13:12:41.568Z,34.58
2023-03-21T13:16:22.135Z,33.74
2023-03-21T13:19:37.224Z,31.03
2023-03-21T13:22:43.250Z,27.96
2023-03-21T13:25:49.457Z,27.40
2023-03-21T13:28:52.497Z,28.66
2023-03-21T13:32:07.226Z,30.00
2023-03-21T13:35:20.859Z,26.45
2023-03-21T13:38:29.333Z,25.96
2023-03-21T13:41:37.807Z,25.71
2023-03-21T13:44:49.600Z,26.58
2023-03-21T13:48:01.018Z,25.34
2023-03-21T13:51:05.496Z,26.72
2023-03-21T13:54:08.086Z,28.45
2023-03-21T13:57:30.527Z,27.91
2023-03-21T14:00:39.944Z,28.64
2023-03-21T14:03:46.705Z,26.94
2023-03-21T14:06:57.672Z,26.71
2023-03-21T14:10:06.385Z,28.40
2023-03-21T14:13:16.372Z,26.95
2023-03-21T14:16:45.956Z,27.21
2023-03-21T14:20:25.485Z,29.07
2023-03-21T14:23:28.047Z,29.30
2023-03-21T14:26:37.903Z,28.54
2023-03-21T14:29:41.917Z,27.26
2023-03-21T14:32:47.596Z,28.21
2023-03-21T14:35:51.559Z,26.44
2023-03-21T14:39:04.619Z,26.84
2023-03-21T14:42:15.696Z,26.60
2023-03-21T14:45:25.898Z,26.48
2023-03-21T14:48:32.051Z,25.43
2023-03-21T14:51:36.425Z,25.40
2023-03-21T14:54:42.664Z,24.66
2023-03-21T14:57:46.053Z,25.05
2023-03-21T15:00:50.882Z,24.29
2023-03-21T15:03:53.746Z,24.28
2023-03-21T15:06:59.444Z,23.90
2023-03-21T15:10:13.965Z,26.75
2023-03-21T15:13:25.298Z,31.42
2023-03-21T15:16:30.351Z,33.11
2023-03-21T15:19:37.632Z,35.16
2023-03-21T15:22:46.135Z,35.92
2023-03-21T15:25:50.974Z,36.53
2023-03-21T15:28:59.410Z,37.57
2023-03-21T15:32:06.758Z,37.44
2023-03-21T15:35:16.968Z,38.61
2023-03-21T15:38:24.383Z,37.72
2023-03-21T15:41:31.114Z,38.35
2023-03-21T15:44:35.511Z,37.97
2023-03-21T15:47:54.583Z,38.48
2023-03-21T15:51:04.094Z,38.19
2023-03-21T15:54:15.104Z,38.18
2023-03-21T15:57:47.504Z,37.87
2023-03-21T16:00:55.429Z,37.97
2023-03-21T16:04:07.140Z,37.90
2023-03-21T16:07:17.409Z,37.75
2023-03-21T16:10:28.614Z,37.92
2023-03-21T16:13:31.946Z,37.79
2023-03-21T16:16:35.079Z,38.28
2023-03-21T16:19:37.982Z,38.36
2023-03-21T16:22:41.125Z,39.09
2023-03-21T16:25:44.352Z,39.33
2023-03-21T16:28:47.608Z,39.15
2023-03-21T16:31:51.038Z,39.66
2023-03-21T16:34:56.189Z,39.84
2023-03-21T16:37:58.782Z,40.52
2023-03-21T16:41:04.326Z,40.58
2023-03-21T16:44:08.291Z,40.72
2023-03-21T16:47:19.997Z,40.67
2023-03-21T16:50:32.233Z,40.55
2023-03-21T16:53:37.385Z,40.61
2023-03-21T16:56:43.233Z,41.07
2023-03-21T16:59:46.569Z,41.35
2023-03-21T17:02:53.536Z,41.18
2023-03-21T17:05:56.322Z,42.09
2023-03-21T17:09:00.630Z,42.16
2023-03-21T17:12:04.251Z,41.83
2023-03-21T17:15:08.579Z,41.67
2023-03-21T17:18:12.272Z,42.02
2023-03-21T17:21:18.634Z,42.37
2023-03-21T17:24:21.571Z,42.51
2023-03-21T17:27:24.284Z,42.40
2023-03-21T17:30:30.517Z,42.31
2023-03-21T17:33:33.115Z,42.45
2023-03-21T17:36:38.981Z,42.43
2023-03-21T17:39:43.002Z,42.48
2023-03-21T17:42:47.306Z,42.75
2023-03-21T17:45:50.298Z,43.43
2023-03-21T17:48:53.807Z,43.41
2023-03-21T17:51:56.447Z,43.34
2023-03-21T17:54:58.953Z,43.33
2023-03-21T17:58:01.788Z,44.13
2023-03-21T18:01:05.701Z,44.01
2023-03-21T18:04:09.333Z,43.62
2023-03-21T18:07:24.518Z,44.10
2023-03-21T18:10:40.967Z,44.50
2023-03-21T18:13:44.742Z,44.52
2023-03-21T18:16:48.086Z,44.94
2023-03-21T18:19:51.735Z,44.58
2023-03-21T18:22:55.426Z,44.98
2023-03-21T18:26:00.504Z,44.97
2023-03-21T18:29:57.054Z,44.93
2023-03-21T18:32:27.297Z,44.98
2023-03-21T18:35:30.168Z,44.86
2023-03-21T18:38:33.795Z,45.29
2023-03-21T18:41:37.087Z,45.46
2023-03-21T18:44:45.506Z,45.80
2023-03-21T18:47:48.406Z,45.79
2023-03-21T18:50:51.455Z,45.76
2023-03-21T18:53:55.144Z,45.59
2023-03-21T18:57:34.998Z,45.70
2023-03-21T19:00:23.487Z,45.62
2023-03-21T19:03:36.028Z,46.04
2023-03-21T19:06:39.927Z,45.64
2023-03-21T19:10:05.342Z,45.91
2023-03-21T19:13:07.069Z,46.06
2023-03-21T19:16:11.515Z,45.98
2023-03-21T19:19:18.748Z,45.80
2023-03-21T19:22:21.452Z,46.46
2023-03-21T19:25:24.865Z,46.31
2023-03-21T19:28:28.204Z,46.33
2023-03-21T19:31:31.818Z,46.72
2023-03-21T19:34:35.641Z,47.11
2023-03-21T19:37:38.757Z,46.43
2023-03-21T19:40:42.190Z,46.69
2023-03-21T19:43:53.712Z,46.77
2023-03-21T19:46:57.933Z,47.44
2023-03-21T19:53:24.676Z,47.34
2023-03-21T19:56:27.936Z,47.50
2023-03-21T19:59:32.119Z,47.75
2023-03-21T20:02:37.100Z,47.51
2023-03-21T20:05:40.077Z,47.26
2023-03-21T20:09:13.673Z,47.61
2023-03-21T20:12:07.592Z,48.37
2023-03-21T20:15:17.650Z,48.89
2023-03-21T20:18:26.313Z,48.68
2023-03-21T20:21:34.065Z,48.98
2023-03-21T20:24:44.348Z,49.07
2023-03-21T20:27:47.526Z,49.32
2023-03-21T20:30:54.060Z,49.01
2023-03-21T20:33:57.837Z,49.11
2023-03-21T20:37:00.989Z,49.78
2023-03-21T20:40:09.712Z,49.68
2023-03-21T20:43:54.383Z,49.96
2023-03-21T20:46:37.850Z,49.73
2023-03-21T20:49:40.926Z,50.22
2023-03-21T20:53:07.056Z,50.06
2023-03-21T20:56:07.700Z,50.16
2023-03-21T20:59:23.188Z,51.00
2023-03-21T21:02:28.000Z,50.43
2023-03-21T21:05:34.332Z,50.66
2023-03-21T21:08:41.086Z,50.54
2023-03-21T21:12:06.983Z,50.50
2023-03-21T21:15:08.680Z,50.87
2023-03-21T21:18:12.385Z,50.66
2023-03-21T21:21:17.291Z,51.00
2023-03-21T21:24:19.937Z,50.83
2023-03-21T21:27:23.351Z,49.97
2023-03-21T21:30:26.028Z,49.80
2023-03-21T21:33:34.374Z,49.76
2023-03-21T21:36:37.331Z,50.22
2023-03-21T21:39:40.270Z,50.51
2023-03-21T21:42:44.204Z,50.14
2023-03-21T21:45:48.232Z,50.49
2023-03-21T21:48:51.041Z,50.77
2023-03-21T21:51:54.558Z,51.10
2023-03-21T21:54:57.113Z,50.76
2023-03-21T21:58:00.887Z,51.38
2023-03-21T22:01:06.178Z,51.02
2023-03-21T22:04:11.404Z,51.38
2023-03-21T22:07:16.966Z,51.51
2023-03-21T22:10:22.243Z,51.89
2023-03-21T22:13:25.427Z,51.63
2023-03-21T22:16:29.096Z,51.84
2023-03-21T22:19:32.569Z,52.30
2023-03-21T22:22:36.621Z,52.11
2023-03-21T22:25:40.081Z,52.37
2023-03-21T22:28:43.650Z,52.87
2023-03-21T22:31:47.367Z,52.50
2023-03-21T22:34:51.228Z,53.20
2023-03-21T22:37:54.427Z,53.09
2023-03-21T22:40:58.948Z,53.37
2023-03-21T22:44:02.464Z,53.14
2023-03-21T22:47:08.463Z,53.49
2023-03-21T22:50:11.251Z,53.85
2023-03-21T22:53:14.424Z,53.93
2023-03-21T22:56:18.944Z,53.49
2023-03-21T22:59:21.625Z,53.71
2023-03-21T23:02:25.068Z,53.63
2023-03-21T23:05:27.914Z,53.88
2023-03-21T23:08:31.842Z,53.80
2023-03-21T23:11:36.100Z,53.97
2023-03-21T23:14:39.499Z,54.33
2023-03-21T23:17:44.234Z,55.03
2023-03-21T23:20:49.859Z,55.10
2023-03-21T23:23:56.345Z,55.04
2023-03-21T23:26:59.550Z,54.77
2023-03-21T23:30:03.439Z,53.87
2023-03-21T23:33:08.015Z,53.82
2023-03-21T23:36:26.491Z,55.13
2023-03-21T23:39:29.145Z,54.97
2023-03-21T23:42:34.323Z,54.87
2023-03-21T23:45:37.170Z,55.37
2023-03-21T23:48:41.463Z,55.70
2023-03-21T23:51:44.778Z,56.29
2023-03-21T23:54:47.342Z,56.29
2023-03-21T23:57:58.909Z,56.57
